Welcome to Northern Hawkes Bay. New Zealand.
PWS Header
      nz Flag



Hit Counter


W3C Valid W3C Valid logo


    Wairoa

Select any of the Stations below to visit their websites.










Historic Data from Weather Underground
Select the location of interest below. Wairoa is the default. Please have patience, this Data is slow to load in.
Northern Hawkes Bay Historical Data
Daily Summary for March 22, 2017 Units:  Metric    English   Both
« Previous Day
Next Day »
Daily Weekly Monthly Yearly Custom
  High: Low: Average:
Temperature: 27.7 °C 12.9 °C 19.7 °C
Dew Point: 19.3 °C 12.4 °C 15.8 °C
Humidity: 99% 52% 81%
Wind Speed: 13.4km/h 0.0km/h 3.9km/h
Wind Gust: 25.6km/h - -
Wind- - WNW
Pressure: 1015.5 hPa 1009.0 hPa -
Precipitation: 0.0 mm    
Historical Graphs
 
 
Tabular Data for March 22, 2017
Time Temperature Dew Point Pressure Wind Wind Speed Wind Gust Humidity Rainfall Rate (Hourly) solar
00:03 13.6 °C 13.4 °C 1015.5 hPa Calm     99% 0.0 mm 0 W/m2
00:08 13.6 °C 13.4 °C 1015.5 hPa Calm     99% 0.0 mm 0 W/m2
00:13 13.5 °C 13.3 °C 1015.1 hPa Calm     99% 0.0 mm 0 W/m2
00:18 13.5 °C 13.3 °C 1015.1 hPa Calm     99% 0.0 mm 0 W/m2
00:23 13.5 °C 13.3 °C 1015.1 hPa Calm     99% 0.0 mm 0 W/m2
00:28 13.4 °C 13.3 °C 1015.1 hPa NNW 6.1 km/h 7.2 km/h 99% 0.0 mm 0 W/m2
00:33 13.5 °C 13.3 °C 1015.1 hPa NNW 1.1 km/h 8.7 km/h 99% 0.0 mm 0 W/m2
00:39 13.5 °C 13.3 °C 1015.1 hPa Calm   9.7 km/h 99% 0.0 mm 0 W/m2
00:44 13.5 °C 13.3 °C 1015.1 hPa NW 5.0 km/h 9.7 km/h 99% 0.0 mm 0 W/m2
00:50 13.5 °C 13.3 °C 1014.8 hPa NW 5.0 km/h 11.1 km/h 99% 0.0 mm 0 W/m2
00:56 13.4 °C 13.3 °C 1014.8 hPa NNW 6.1 km/h 11.1 km/h 99% 0.0 mm 0 W/m2
01:01 13.4 °C 13.3 °C 1014.8 hPa NNW 7.2 km/h 11.1 km/h 99% 0.0 mm 0 W/m2
01:06 13.4 °C 13.3 °C 1014.8 hPa NW 3.5 km/h 11.1 km/h 99% 0.0 mm 0 W/m2
01:11 13.4 °C 13.3 °C 1014.8 hPa Calm   8.7 km/h 99% 0.0 mm 0 W/m2
01:16 13.4 °C 13.3 °C 1014.8 hPa NNW 3.5 km/h 8.7 km/h 99% 0.0 mm 0 W/m2
01:21 13.4 °C 13.3 °C 1014.8 hPa Calm   7.2 km/h 99% 0.0 mm 0 W/m2
01:26 13.3 °C 13.2 °C 1014.4 hPa Calm   6.1 km/h 99% 0.0 mm 0 W/m2
01:31 13.3 °C 13.2 °C 1014.4 hPa Calm     99% 0.0 mm 0 W/m2
01:36 13.3 °C 13.2 °C 1014.4 hPa Calm   9.7 km/h 99% 0.0 mm 0 W/m2
01:41 13.3 °C 13.2 °C 1014.4 hPa NNW 3.5 km/h 9.7 km/h 99% 0.0 mm 0 W/m2
01:46 13.2 °C 13.1 °C 1014.4 hPa NNW 6.1 km/h 8.7 km/h 99% 0.0 mm 0 W/m2
01:51 13.2 °C 13.1 °C 1014.4 hPa NNW 7.2 km/h 11.1 km/h 99% 0.0 mm 0 W/m2
01:56 13.2 °C 13.1 °C 1014.4 hPa NNW 6.1 km/h 11.1 km/h 99% 0.0 mm 0 W/m2
02:01 13.3 °C 13.2 °C 1014.4 hPa NNW 6.1 km/h 12.2 km/h 99% 0.0 mm 0 W/m2
02:06 13.3 °C 13.2 °C 1014.1 hPa NW 6.1 km/h 12.2 km/h 99% 0.0 mm 0 W/m2
02:11 13.3 °C 13.2 °C 1014.4 hPa NNW 7.2 km/h 12.2 km/h 99% 0.0 mm 0 W/m2
02:16 13.3 °C 13.2 °C 1014.1 hPa NNW 5.0 km/h 12.2 km/h 99% 0.0 mm 0 W/m2
02:21 13.2 °C 13.1 °C 1014.4 hPa NNW 6.1 km/h 11.1 km/h 99% 0.0 mm 0 W/m2
02:26 13.2 °C 13.1 °C 1014.1 hPa North 5.0 km/h 11.1 km/h 99% 0.0 mm 0 W/m2
02:31 13.1 °C 12.9 °C 1014.1 hPa NNW 6.1 km/h 11.1 km/h 99% 0.0 mm 0 W/m2
02:36 13.1 °C 12.9 °C 1014.4 hPa NNW 3.5 km/h 11.1 km/h 99% 0.0 mm 0 W/m2
02:41 13.0 °C 12.8 °C 1014.1 hPa North 3.5 km/h 11.1 km/h 99% 0.0 mm 0 W/m2
02:46 13.0 °C 12.8 °C 1014.1 hPa North 5.0 km/h 11.1 km/h 99% 0.0 mm 0 W/m2
02:51 13.1 °C 12.9 °C 1014.4 hPa Calm   11.1 km/h 99% 0.0 mm 0 W/m2
02:56 13.1 °C 12.9 °C 1014.1 hPa Calm   9.7 km/h 99% 0.0 mm 0 W/m2
03:01 13.1 °C 12.9 °C 1014.1 hPa North 3.5 km/h 8.7 km/h 99% 0.0 mm 0 W/m2
03:06 13.1 °C 12.9 °C 1014.1 hPa Calm   8.7 km/h 99% 0.0 mm 0 W/m2
03:11 13.2 °C 13.1 °C 1014.1 hPa North 3.5 km/h 8.7 km/h 99% 0.0 mm 0 W/m2
03:16 13.3 °C 13.2 °C 1013.8 hPa North 2.6 km/h 8.7 km/h 99% 0.0 mm 0 W/m2
03:21 13.3 °C 13.2 °C 1013.8 hPa NNW 6.1 km/h 9.7 km/h 99% 0.0 mm 0 W/m2
03:26 13.3 °C 13.2 °C 1013.8 hPa NNW 3.5 km/h 12.2 km/h 99% 0.0 mm 0 W/m2
03:31 13.3 °C 13.2 °C 1013.8 hPa NNW 6.1 km/h 12.2 km/h 99% 0.0 mm 0 W/m2
03:36 13.2 °C 13.1 °C 1013.4 hPa NW 2.6 km/h 12.2 km/h 99% 0.0 mm 0 W/m2
03:41 13.2 °C 13.1 °C 1013.4 hPa NW 5.0 km/h 11.1 km/h 99% 0.0 mm 0 W/m2
03:46 13.1 °C 12.9 °C 1013.4 hPa Calm   11.1 km/h 99% 0.0 mm 0 W/m2
03:51 13.1 °C 12.9 °C 1013.8 hPa Calm   9.7 km/h 99% 0.0 mm 0 W/m2
03:56 13.0 °C 12.8 °C 1013.4 hPa Calm   8.7 km/h 99% 0.0 mm 0 W/m2
04:01 13.0 °C 12.8 °C 1013.4 hPa Calm   7.2 km/h 99% 0.0 mm 0 W/m2
04:06 13.0 °C 12.8 °C 1013.4 hPa Calm   8.7 km/h 99% 0.0 mm 0 W/m2
04:11 13.0 °C 12.8 °C 1013.4 hPa Calm   8.7 km/h 99% 0.0 mm 0 W/m2
04:16 12.9 °C 12.4 °C 1013.4 hPa NW 1.1 km/h 6.1 km/h 97% 0.0 mm 0 W/m2
04:21 12.9 °C 12.4 °C 1013.4 hPa Calm   6.1 km/h 97% 0.0 mm 0 W/m2
04:26 12.9 °C 12.4 °C 1013.4 hPa Calm   6.1 km/h 97% 0.0 mm 0 W/m2
04:31 12.9 °C 12.4 °C 1013.4 hPa Calm   6.1 km/h 97% 0.0 mm 0 W/m2
04:36 12.9 °C 12.4 °C 1013.1 hPa Calm   5.0 km/h 97% 0.0 mm 0 W/m2
04:41 12.9 °C 12.4 °C 1013.4 hPa Calm   7.2 km/h 97% 0.0 mm 0 W/m2
04:46 13.0 °C 12.8 °C 1013.1 hPa Calm   7.2 km/h 99% 0.0 mm 0 W/m2
04:51 13.0 °C 12.8 °C 1013.1 hPa North 7.2 km/h 11.1 km/h 99% 0.0 mm 0 W/m2
04:56 13.0 °C 12.8 °C 1013.1 hPa North 1.1 km/h 11.1 km/h 99% 0.0 mm 0 W/m2
05:01 13.0 °C 12.8 °C 1013.1 hPa Calm   11.1 km/h 99% 0.0 mm 0 W/m2
05:06 13.0 °C 12.8 °C 1012.8 hPa Calm   8.7 km/h 99% 0.0 mm 0 W/m2
05:11 13.1 °C 12.9 °C 1013.1 hPa Calm   1.1 km/h 99% 0.0 mm 0 W/m2
05:16 13.0 °C 12.8 °C 1013.1 hPa Calm   8.7 km/h 99% 0.0 mm 0 W/m2
05:22 13.0 °C 12.8 °C 1013.1 hPa NNW 2.6 km/h 12.2 km/h 99% 0.0 mm 0 W/m2
05:27 12.9 °C 12.4 °C 1013.1 hPa NNW 5.0 km/h 12.2 km/h 97% 0.0 mm 0 W/m2
05:32 12.9 °C 12.4 °C 1013.1 hPa NNW 3.5 km/h 11.1 km/h 97% 0.0 mm 0 W/m2
05:37 12.9 °C 12.4 °C 1013.1 hPa NNW 2.6 km/h 11.1 km/h 97% 0.0 mm 0 W/m2
05:42 12.9 °C 12.4 °C 1013.1 hPa North 5.0 km/h 11.1 km/h 97% 0.0 mm 0 W/m2
05:47 13.0 °C 12.8 °C 1013.1 hPa North 1.1 km/h 8.7 km/h 99% 0.0 mm 0 W/m2
05:52 13.0 °C 12.8 °C 1012.8 hPa Calm   8.7 km/h 99% 0.0 mm 0 W/m2
05:57 13.1 °C 12.9 °C 1012.8 hPa NNW 2.6 km/h 9.7 km/h 99% 0.0 mm 0 W/m2
06:02 13.1 °C 12.9 °C 1013.1 hPa Calm   9.7 km/h 99% 0.0 mm 0 W/m2
06:07 13.2 °C 13.1 °C 1013.1 hPa North 6.1 km/h 11.1 km/h 99% 0.0 mm 0 W/m2
06:12 13.2 °C 13.1 °C 1013.1 hPa North 6.1 km/h 12.2 km/h 99% 0.0 mm 0 W/m2
06:17 13.2 °C 13.1 °C 1013.1 hPa North 5.0 km/h 12.2 km/h 99% 0.0 mm 0 W/m2
06:22 13.2 °C 13.1 °C 1012.8 hPa North 8.7 km/h 13.4 km/h 99% 0.0 mm 0 W/m2
06:27 13.2 °C 12.9 °C 1013.1 hPa NNW 6.1 km/h 14.8 km/h 98% 0.0 mm 0 W/m2
06:32 13.2 °C 12.9 °C 1012.8 hPa NNW 11.1 km/h 15.8 km/h 98% 0.0 mm 0 W/m2
06:37 13.2 °C 12.9 °C 1013.1 hPa NNW 9.7 km/h 15.8 km/h 98% 0.0 mm 0 W/m2
06:42 13.2 °C 12.9 °C 1013.1 hPa NNW 5.0 km/h 15.8 km/h 98% 0.0 mm 0 W/m2
06:48 13.2 °C 12.9 °C 1013.1 hPa NNW 8.7 km/h 15.8 km/h 98% 0.0 mm 0 W/m2
06:53 13.2 °C 12.9 °C 1013.1 hPa NNW 6.1 km/h 15.8 km/h 98% 0.0 mm 0 W/m2
06:58 13.2 °C 12.9 °C 1013.1 hPa NNW 8.7 km/h 13.4 km/h 98% 0.0 mm 0 W/m2
07:03 13.2 °C 12.9 °C 1013.1 hPa NNW 7.2 km/h 15.8 km/h 98% 0.0 mm 0 W/m2
07:08 13.2 °C 12.9 °C 1012.8 hPa NNW 7.2 km/h 15.8 km/h 98% 0.0 mm 1 W/m2
07:13 13.3 °C 13.0 °C 1012.8 hPa North 5.0 km/h 13.4 km/h 98% 0.0 mm 3 W/m2
07:18 13.3 °C 13.0 °C 1012.8 hPa North 7.2 km/h 14.8 km/h 98% 0.0 mm 5 W/m2
07:23 13.4 °C 12.9 °C 1012.8 hPa North 9.7 km/h 14.8 km/h 97% 0.0 mm 9 W/m2
07:28 13.5 °C 13.1 °C 1013.1 hPa NNW 11.1 km/h 17.2 km/h 97% 0.0 mm 12 W/m2
07:33 13.5 °C 13.1 °C 1013.1 hPa NNW 11.1 km/h 17.2 km/h 97% 0.0 mm 13 W/m2
07:38 13.6 °C 13.0 °C 1013.1 hPa NW 11.1 km/h 18.3 km/h 96% 0.0 mm 14 W/m2
07:43 13.7 °C 13.1 °C 1013.1 hPa NNW 7.2 km/h 18.3 km/h 96% 0.0 mm 22 W/m2
07:48 13.8 °C 13.2 °C 1012.8 hPa North 2.6 km/h 15.8 km/h 96% 0.0 mm 30 W/m2
07:53 14.0 °C 13.2 °C 1012.8 hPa North 1.1 km/h 12.2 km/h 95% 0.0 mm 39 W/m2
07:58 14.1 °C 13.2 °C 1012.8 hPa North 2.6 km/h 12.2 km/h 94% 0.0 mm 37 W/m2
08:03 14.2 °C 13.3 °C 1012.8 hPa North 1.1 km/h 9.7 km/h 94% 0.0 mm 40 W/m2
08:08 14.3 °C 13.3 °C 1012.8 hPa Calm   9.7 km/h 94% 0.0 mm 43 W/m2
08:13 14.3 °C 13.3 °C 1013.1 hPa North 7.2 km/h 9.7 km/h 94% 0.0 mm 51 W/m2
08:18 14.4 °C 13.3 °C 1013.1 hPa NNW 3.5 km/h 11.1 km/h 93% 0.0 mm 60 W/m2
08:23 14.5 °C 13.4 °C 1013.1 hPa NNW 5.0 km/h 11.1 km/h 93% 0.0 mm 98 W/m2
08:28 14.6 °C 13.5 °C 1012.8 hPa North 3.5 km/h 9.7 km/h 93% 0.0 mm 77 W/m2
08:33 14.7 °C 13.6 °C 1013.1 hPa NNW 5.0 km/h 9.7 km/h 93% 0.0 mm 83 W/m2
08:38 14.9 °C 13.8 °C 1012.8 hPa NNW 6.1 km/h 9.7 km/h 93% 0.0 mm 92 W/m2
08:43 15.0 °C 13.6 °C 1012.8 hPa North 6.1 km/h 12.2 km/h 91% 0.0 mm 97 W/m2
08:48 15.1 °C 13.7 °C 1013.1 hPa North 3.5 km/h 12.2 km/h 91% 0.0 mm 101 W/m2
08:53 15.3 °C 13.8 °C 1012.8 hPa NNW 5.0 km/h 9.7 km/h 91% 0.0 mm 137 W/m2
08:58 15.5 °C 13.9 °C 1012.8 hPa NNW 6.1 km/h 11.1 km/h 90% 0.0 mm 132 W/m2
09:03 15.7 °C 14.1 °C 1012.8 hPa North 6.1 km/h 11.1 km/h 90% 0.0 mm 136 W/m2
09:08 15.8 °C 14.0 °C 1012.8 hPa NNW 8.7 km/h 13.4 km/h 89% 0.0 mm 158 W/m2
09:13 16.0 °C 13.8 °C 1012.8 hPa NNW 6.1 km/h 13.4 km/h 87% 0.0 mm 157 W/m2
09:18 16.0 °C 13.8 °C 1012.8 hPa NNW 6.1 km/h 13.4 km/h 87% 0.0 mm 133 W/m2
09:23 16.1 °C 13.9 °C 1012.8 hPa NNW 9.7 km/h 13.4 km/h 87% 0.0 mm 140 W/m2
09:28 16.2 °C 14.1 °C 1013.1 hPa NNW 8.7 km/h 14.8 km/h 87% 0.0 mm 135 W/m2
09:33 16.2 °C 14.1 °C 1012.8 hPa NNW 8.7 km/h 14.8 km/h 87% 0.0 mm 127 W/m2
09:38 16.3 °C 14.2 °C 1013.1 hPa North 8.7 km/h 13.4 km/h 87% 0.0 mm 113 W/m2
09:43 16.4 °C 14.2 °C 1012.8 hPa NNW 11.1 km/h 13.4 km/h 87% 0.0 mm 135 W/m2
09:48 16.6 °C 14.4 °C 1012.8 hPa NNW 8.7 km/h 14.8 km/h 87% 0.0 mm 133 W/m2
09:53 16.8 °C 14.6 °C 1012.8 hPa NW 8.7 km/h 14.8 km/h 87% 0.0 mm 143 W/m2
09:58 17.1 °C 14.7 °C 1012.8 hPa NNW 7.2 km/h 13.4 km/h 86% 0.0 mm 179 W/m2
10:03 17.3 °C 14.8 °C 1012.8 hPa NNW 3.5 km/h 13.4 km/h 85% 0.0 mm 141 W/m2
10:08 17.5 °C 14.9 °C 1012.8 hPa NNW 5.0 km/h 11.1 km/h 85% 0.0 mm 147 W/m2
10:13 17.8 °C 15.3 °C 1013.1 hPa North 5.0 km/h 12.2 km/h 85% 0.0 mm 265 W/m2
10:18 18.2 °C 15.7 °C 1012.8 hPa NNW 8.7 km/h 13.4 km/h 85% 0.0 mm 160 W/m2
10:23 18.4 °C 15.7 °C 1012.8 hPa NNW 5.0 km/h 13.4 km/h 84% 0.0 mm 158 W/m2
10:28 18.6 °C 15.8 °C 1012.8 hPa NNW 5.0 km/h 12.2 km/h 84% 0.0 mm 101 W/m2
10:33 19.0 °C 16.1 °C 1012.8 hPa NW 7.2 km/h 12.2 km/h 83% 0.0 mm 128 W/m2
10:38 19.9 °C 16.7 °C 1013.1 hPa NW 5.0 km/h 13.4 km/h 82% 0.0 mm 179 W/m2
10:43 20.6 °C 16.7 °C 1012.8 hPa NNW 6.1 km/h 14.8 km/h 78% 0.0 mm 412 W/m2
10:48 21.2 °C 16.6 °C 1012.8 hPa North 8.7 km/h 14.8 km/h 75% 0.0 mm 124 W/m2
10:53 21.2 °C 16.4 °C 1012.8 hPa North 7.2 km/h 14.8 km/h 74% 0.0 mm 476 W/m2
10:58 22.3 °C 17.2 °C 1013.1 hPa NNW 5.0 km/h 14.8 km/h 73% 0.0 mm 482 W/m2
11:03 22.9 °C 17.2 °C 1012.8 hPa North 13.4 km/h 17.2 km/h 70% 0.0 mm 462 W/m2
11:08 23.0 °C 17.3 °C 1012.8 hPa North 3.5 km/h 17.2 km/h 70% 0.0 mm 132 W/m2
11:13 23.7 °C 17.4 °C 1012.8 hPa North 7.2 km/h 17.2 km/h 68% 0.0 mm 312 W/m2
11:18 24.2 °C 17.4 °C 1012.4 hPa North 8.7 km/h 17.2 km/h 66% 0.0 mm 312 W/m2
11:23 24.2 °C 17.2 °C 1012.8 hPa NNW 9.7 km/h 17.2 km/h 65% 0.0 mm 457 W/m2
11:28 24.5 °C 17.5 °C 1012.8 hPa NNW 11.1 km/h 17.2 km/h 65% 0.0 mm 545 W/m2
11:33 24.8 °C 17.6 °C 1012.8 hPa NNW 8.7 km/h 15.8 km/h 64% 0.0 mm 641 W/m2
11:38 25.1 °C 17.1 °C 1012.4 hPa NNW 9.7 km/h 15.8 km/h 61% 0.0 mm 575 W/m2
11:43 24.6 °C 17.1 °C 1012.8 hPa NNW 9.7 km/h 15.8 km/h 63% 0.0 mm 693 W/m2
11:48 24.9 °C 17.9 °C 1012.4 hPa NNW 7.2 km/h 15.8 km/h 65% 0.0 mm 715 W/m2
11:53 25.3 °C 17.5 °C 1012.4 hPa North 8.7 km/h 15.8 km/h 62% 0.0 mm 453 W/m2
11:58 24.8 °C 17.6 °C 1012.4 hPa North 11.1 km/h 14.8 km/h 64% 0.0 mm 227 W/m2
12:03 24.4 °C 17.7 °C 1012.4 hPa NNW 6.1 km/h 14.8 km/h 66% 0.0 mm 285 W/m2
12:08 24.4 °C 17.4 °C 1012.1 hPa NNW 6.1 km/h 13.4 km/h 65% 0.0 mm 248 W/m2
12:13 24.5 °C 17.5 °C 1012.1 hPa North 3.5 km/h 12.2 km/h 65% 0.0 mm 255 W/m2
12:18 25.0 °C 18.0 °C 1012.1 hPa North 1.1 km/h 12.2 km/h 65% 0.0 mm 241 W/m2
12:23 25.1 °C 17.8 °C 1012.1 hPa NNE 5.0 km/h 8.7 km/h 64% 0.0 mm 304 W/m2
12:28 25.2 °C 17.9 °C 1011.7 hPa North 3.5 km/h 11.1 km/h 64% 0.0 mm 293 W/m2
12:33 25.4 °C 17.6 °C 1011.7 hPa NNW 6.1 km/h 13.4 km/h 62% 0.0 mm 279 W/m2
12:38 25.8 °C 17.4 °C 1011.7 hPa NNW 5.0 km/h 13.4 km/h 60% 0.0 mm 814 W/m2
12:43 26.4 °C 17.5 °C 1011.7 hPa NNW 2.6 km/h 12.2 km/h 58% 0.0 mm 542 W/m2
12:48 26.9 °C 17.4 °C 1011.7 hPa NNW 7.2 km/h 17.2 km/h 56% 0.0 mm 646 W/m2
12:53 27.4 °C 17.3 °C 1011.7 hPa NW 8.7 km/h 17.2 km/h 54% 0.0 mm 920 W/m2
12:58 27.3 °C 16.6 °C 1011.4 hPa WNW 5.0 km/h 14.8 km/h 52% 0.0 mm 291 W/m2
13:03 27.0 °C 17.2 °C 1011.4 hPa NW 3.5 km/h 12.2 km/h 55% 0.0 mm 304 W/m2
13:08 26.9 °C 17.1 °C 1011.4 hPa WNW 1.1 km/h 8.7 km/h 55% 0.0 mm 285 W/m2
13:13 26.8 °C 17.1 °C 1011.4 hPa WNW 5.0 km/h 11.1 km/h 55% 0.0 mm 483 W/m2
13:18 27.0 °C 17.2 °C 1011.4 hPa NW 3.5 km/h 11.1 km/h 55% 0.0 mm 568 W/m2
13:23 27.2 °C 16.8 °C 1011.1 hPa NW 5.0 km/h 11.1 km/h 53% 0.0 mm 312 W/m2
13:28 27.1 °C 17.0 °C 1011.1 hPa NW 3.5 km/h 11.1 km/h 54% 0.0 mm 506 W/m2
13:33 27.3 °C 17.2 °C 1011.1 hPa WNW 6.1 km/h 13.4 km/h 54% 0.0 mm 724 W/m2
13:38 27.4 °C 17.3 °C 1011.1 hPa NW 13.4 km/h 17.2 km/h 54% 0.0 mm 763 W/m2
13:43 26.8 °C 17.3 °C 1010.7 hPa WNW 7.2 km/h 17.2 km/h 56% 0.0 mm 513 W/m2
13:48 26.6 °C 17.1 °C 1010.7 hPa WNW 9.7 km/h 17.2 km/h 56% 0.0 mm 282 W/m2
13:53 26.3 °C 17.1 °C 1010.7 hPa WNW 8.7 km/h 17.2 km/h 57% 0.0 mm 249 W/m2
13:58 26.1 °C 17.2 °C 1010.7 hPa WNW 7.2 km/h 17.2 km/h 58% 0.0 mm 272 W/m2
14:03 26.4 °C 17.2 °C 1010.7 hPa NW 6.1 km/h 14.8 km/h 57% 0.0 mm 269 W/m2
14:08 26.5 °C 17.3 °C 1010.4 hPa NW 5.0 km/h 11.1 km/h 57% 0.0 mm 333 W/m2
14:13 26.6 °C 16.8 °C 1010.4 hPa NW 6.1 km/h 14.8 km/h 55% 0.0 mm 232 W/m2
14:18 26.7 °C 17.2 °C 1010.0 hPa NNW 7.2 km/h 14.8 km/h 56% 0.0 mm 218 W/m2
14:23 26.9 °C 17.7 °C 1010.4 hPa North 8.7 km/h 12.2 km/h 57% 0.0 mm 205 W/m2
14:28 26.9 °C 17.4 °C 1010.0 hPa NNW 9.7 km/h 18.3 km/h 56% 0.0 mm 331 W/m2
14:33 27.2 °C 17.1 °C 1010.4 hPa NW 9.7 km/h 19.5 km/h 54% 0.0 mm 563 W/m2
14:38 27.1 °C 16.7 °C 1010.4 hPa NW 12.2 km/h 25.6 km/h 53% 0.0 mm 291 W/m2
14:43 26.5 °C 16.7 °C 1010.4 hPa NW 11.1 km/h 25.6 km/h 55% 0.0 mm 158 W/m2
14:48 26.6 °C 17.4 °C 1010.4 hPa NW 9.7 km/h 19.5 km/h 57% 0.0 mm 529 W/m2
14:53 27.3 °C 16.9 °C 1010.0 hPa NW 6.1 km/h 20.9 km/h 53% 0.0 mm 673 W/m2
14:58 27.7 °C 17.0 °C 1010.4 hPa NNW 5.0 km/h 20.9 km/h 52% 0.0 mm 681 W/m2
15:03 27.7 °C 17.3 °C 1010.4 hPa NNW 3.5 km/h 19.5 km/h 53% 0.0 mm 248 W/m2
15:08 27.1 °C 16.4 °C 1010.0 hPa NW 7.2 km/h 19.5 km/h 52% 0.0 mm 253 W/m2
15:13 26.8 °C 17.1 °C 1010.0 hPa NNW 5.0 km/h 13.4 km/h 55% 0.0 mm 224 W/m2
15:18 26.7 °C 16.9 °C 1010.0 hPa NW 5.0 km/h 13.4 km/h 55% 0.0 mm 212 W/m2
15:23 26.8 °C 17.3 °C 1010.0 hPa NNW 7.2 km/h 11.1 km/h 56% 0.0 mm 211 W/m2
15:28 26.7 °C 17.5 °C 1010.0 hPa NNW 6.1 km/h 13.4 km/h 57% 0.0 mm 238 W/m2
15:33 26.9 °C 17.4 °C 1009.7 hPa NW 3.5 km/h 13.4 km/h 56% 0.0 mm 227 W/m2
15:38 27.1 °C 17.6 °C 1009.7 hPa NNW 3.5 km/h 9.7 km/h 56% 0.0 mm 223 W/m2
15:43 27.0 °C 17.2 °C 1009.7 hPa NNW 2.6 km/h 11.1 km/h 55% 0.0 mm 201 W/m2
15:48 26.9 °C 17.4 °C 1009.7 hPa NW 7.2 km/h 11.1 km/h 56% 0.0 mm 154 W/m2
15:53 26.8 °C 17.9 °C 1009.7 hPa NW 8.7 km/h 11.1 km/h 58% 0.0 mm 137 W/m2
15:58 26.5 °C 17.3 °C 1009.7 hPa NW 1.1 km/h 13.4 km/h 57% 0.0 mm 135 W/m2
16:03 26.4 °C 17.2 °C 1009.7 hPa NNW 5.0 km/h 13.4 km/h 57% 0.0 mm 126 W/m2
16:08 26.3 °C 17.4 °C 1009.7 hPa North 3.5 km/h 9.7 km/h 58% 0.0 mm 95 W/m2
16:13 26.1 °C 17.5 °C 1009.7 hPa North 5.0 km/h 9.7 km/h 59% 0.0 mm 80 W/m2
16:18 25.9 °C 17.8 °C 1009.4 hPa North 2.6 km/h 9.7 km/h 61% 0.0 mm 91 W/m2
16:23 25.9 °C 17.8 °C 1009.4 hPa North 5.0 km/h 9.7 km/h 61% 0.0 mm 109 W/m2
16:28 25.9 °C 17.6 °C 1009.4 hPa North 3.5 km/h 11.1 km/h 60% 0.0 mm 120 W/m2
16:33 25.9 °C 17.8 °C 1009.4 hPa NNW 2.6 km/h 11.1 km/h 61% 0.0 mm 137 W/m2
16:38 25.9 °C 18.1 °C 1009.4 hPa NNW 3.5 km/h 8.7 km/h 62% 0.0 mm 148 W/m2
16:43 26.1 °C 17.8 °C 1009.4 hPa Calm   8.7 km/h 60% 0.0 mm 151 W/m2
16:48 26.1 °C 17.8 °C 1009.4 hPa North 1.1 km/h 8.7 km/h 60% 0.0 mm 145 W/m2
16:53 26.3 °C 17.9 °C 1009.4 hPa NNW 3.5 km/h 7.2 km/h 60% 0.0 mm 124 W/m2
16:58 26.2 °C 18.4 °C 1009.4 hPa NNW 2.6 km/h 7.2 km/h 62% 0.0 mm 105 W/m2
17:03 26.1 °C 18.0 °C 1009.4 hPa North 2.6 km/h 7.2 km/h 61% 0.0 mm 84 W/m2
17:08 26.1 °C 18.0 °C 1009.4 hPa Calm   6.1 km/h 61% 0.0 mm 73 W/m2
17:13 26.1 °C 18.3 °C 1009.4 hPa Calm   5.0 km/h 62% 0.0 mm 93 W/m2
17:19 26.1 °C 18.3 °C 1009.4 hPa Calm     62% 0.0 mm 123 W/m2
17:24 26.3 °C 18.4 °C 1009.4 hPa NNW 3.5 km/h 6.1 km/h 62% 0.0 mm 122 W/m2
17:29 26.4 °C 18.3 °C 1009.4 hPa North 2.6 km/h 6.1 km/h 61% 0.0 mm 110 W/m2
17:34 26.5 °C 18.1 °C 1009.4 hPa Calm   6.1 km/h 60% 0.0 mm 110 W/m2
17:39 26.5 °C 18.4 °C 1009.0 hPa Calm   6.1 km/h 61% 0.0 mm 100 W/m2
17:44 26.5 °C 18.1 °C 1009.4 hPa Calm   6.1 km/h 60% 0.0 mm 89 W/m2
17:49 26.4 °C 18.1 °C 1009.4 hPa NNW 2.6 km/h 7.2 km/h 60% 0.0 mm 71 W/m2
17:54 26.1 °C 18.0 °C 1009.4 hPa Calm   7.2 km/h 61% 0.0 mm 64 W/m2
17:59 26.1 °C 18.3 °C 1009.4 hPa NNW 1.1 km/h 6.1 km/h 62% 0.0 mm 67 W/m2
18:04 26.1 °C 18.3 °C 1009.4 hPa Calm   5.0 km/h 62% 0.0 mm 66 W/m2
18:09 26.1 °C 18.3 °C 1009.4 hPa Calm   3.5 km/h 62% 0.0 mm 108 W/m2
18:14 26.2 °C 18.4 °C 1009.4 hPa Calm   3.5 km/h 62% 0.0 mm 54 W/m2
18:19 26.1 °C 18.6 °C 1009.4 hPa Calm   5.0 km/h 63% 0.0 mm 35 W/m2
18:24 25.9 °C 18.6 °C 1009.4 hPa Calm   5.0 km/h 64% 0.0 mm 37 W/m2
18:29 25.7 °C 18.4 °C 1009.4 hPa Calm   5.0 km/h 64% 0.0 mm 34 W/m2
18:48 25.5 °C 19.2 °C 1009.4 hPa Calm     68% 0.0 mm 23 W/m2
18:53 25.2 °C 18.9 °C 1009.4 hPa Calm     68% 0.0 mm 27 W/m2
18:58 25.0 °C 18.9 °C 1009.4 hPa Calm     69% 0.0 mm 15 W/m2
19:03 24.7 °C 18.9 °C 1009.4 hPa Calm     70% 0.0 mm 12 W/m2
19:08 24.5 °C 18.9 °C 1009.7 hPa Calm     71% 0.0 mm 7 W/m2
19:13 24.3 °C 19.2 °C 1009.4 hPa Calm     73% 0.0 mm 5 W/m2
19:18 24.1 °C 19.0 °C 1009.7 hPa Calm     73% 0.0 mm 2 W/m2
19:38 23.7 °C 19.2 °C 1009.7 hPa Calm     76% 0.0 mm 0 W/m2
19:43 23.5 °C 19.1 °C 1010.0 hPa Calm     76% 0.0 mm 0 W/m2
19:48 23.5 °C 19.3 °C 1010.0 hPa Calm     77% 0.0 mm 0 W/m2
19:53 23.5 °C 19.3 °C 1010.0 hPa Calm     77% 0.0 mm 0 W/m2
19:58 23.4 °C 19.2 °C 1009.7 hPa Calm     77% 0.0 mm 0 W/m2
20:03 23.3 °C 19.1 °C 1010.0 hPa Calm     77% 0.0 mm 0 W/m2
20:08 23.3 °C 19.1 °C 1010.0 hPa Calm     77% 0.0 mm 0 W/m2
20:13 23.2 °C 18.9 °C 1010.0 hPa Calm     77% 0.0 mm 0 W/m2
20:18 23.0 °C 18.8 °C 1010.0 hPa Calm     77% 0.0 mm 0 W/m2
20:23 22.9 °C 18.7 °C 1010.0 hPa Calm     77% 0.0 mm 0 W/m2
20:28 22.8 °C 18.6 °C 1010.4 hPa Calm     77% 0.0 mm 0 W/m2
20:33 22.6 °C 18.4 °C 1010.4 hPa Calm     77% 0.0 mm 0 W/m2
20:38 22.6 °C 18.4 °C 1010.4 hPa Calm   3.5 km/h 77% 0.0 mm 0 W/m2
20:43 22.7 °C 18.3 °C 1010.4 hPa Calm   3.5 km/h 76% 0.0 mm 0 W/m2
20:48 22.9 °C 18.3 °C 1010.4 hPa Calm   3.5 km/h 75% 0.0 mm 0 W/m2
20:53 22.9 °C 18.3 °C 1010.4 hPa Calm   3.5 km/h 75% 0.0 mm 0 W/m2
20:58 22.8 °C 17.9 °C 1010.7 hPa Calm   3.5 km/h 74% 0.0 mm 0 W/m2
21:03 22.9 °C 18.1 °C 1010.7 hPa Calm   5.0 km/h 74% 0.0 mm 0 W/m2
21:08 22.9 °C 18.1 °C 1010.7 hPa Calm   5.0 km/h 74% 0.0 mm 0 W/m2
21:13 22.8 °C 17.9 °C 1011.1 hPa NNW 1.1 km/h 3.5 km/h 74% 0.0 mm 0 W/m2
21:18 22.7 °C 17.8 °C 1011.1 hPa Calm   3.5 km/h 74% 0.0 mm 0 W/m2
21:23 22.6 °C 17.7 °C 1011.1 hPa Calm   2.6 km/h 74% 0.0 mm 0 W/m2
21:28 22.5 °C 17.7 °C 1011.1 hPa Calm     74% 0.0 mm 0 W/m2
21:33 22.4 °C 17.6 °C 1011.1 hPa Calm     74% 0.0 mm 0 W/m2
21:38 22.2 °C 17.8 °C 1011.4 hPa South 6.1 km/h 8.7 km/h 76% 0.0 mm 0 W/m2
21:53 21.4 °C 18.4 °C 1011.7 hPa SSW 7.2 km/h 13.4 km/h 83% 0.0 mm 0 W/m2
21:58 21.3 °C 18.5 °C 1011.7 hPa SSW 3.5 km/h 13.4 km/h 84% 0.0 mm 0 W/m2
22:03 21.3 °C 18.5 °C 1011.7 hPa Calm   9.7 km/h 84% 0.0 mm 0 W/m2
22:08 21.3 °C 18.5 °C 1012.1 hPa SSW 5.0 km/h 6.1 km/h 84% 0.0 mm 0 W/m2
22:13 21.2 °C 18.4 °C 1012.1 hPa Calm   6.1 km/h 84% 0.0 mm 0 W/m2
22:18 21.2 °C 18.2 °C 1012.1 hPa SSE 2.6 km/h 7.2 km/h 83% 0.0 mm 0 W/m2
22:23 21.2 °C 18.4 °C 1012.1 hPa Calm   7.2 km/h 84% 0.0 mm 0 W/m2
22:28 21.1 °C 18.3 °C 1012.1 hPa Calm   6.1 km/h 84% 0.0 mm 0 W/m2
22:33 20.9 °C 18.5 °C 1012.1 hPa SSW 5.0 km/h 8.7 km/h 86% 0.0 mm 0 W/m2
22:38 20.8 °C 18.6 °C 1012.4 hPa SSW 3.5 km/h 9.7 km/h 87% 0.0 mm 0 W/m2
22:43 20.7 °C 18.5 °C 1012.4 hPa SW 6.1 km/h 9.7 km/h 87% 0.0 mm 0 W/m2
22:48 20.7 °C 18.5 °C 1012.1 hPa Calm   9.7 km/h 87% 0.0 mm 0 W/m2
22:53 20.7 °C 18.5 °C 1012.4 hPa SSW 3.5 km/h 8.7 km/h 87% 0.0 mm 0 W/m2
22:58 20.6 °C 18.4 °C 1012.8 hPa SSE 5.0 km/h 9.7 km/h 87% 0.0 mm 0 W/m2
23:03 20.5 °C 18.3 °C 1012.8 hPa SE 7.2 km/h 9.7 km/h 87% 0.0 mm 0 W/m2
23:08 20.4 °C 18.4 °C 1012.8 hPa SE 1.1 km/h 11.1 km/h 88% 0.0 mm 0 W/m2
23:13 20.3 °C 18.4 °C 1012.8 hPa SSE 6.1 km/h 11.1 km/h 89% 0.0 mm 0 W/m2
23:18 20.1 °C 18.2 °C 1012.8 hPa South 2.6 km/h 11.1 km/h 89% 0.0 mm 0 W/m2
23:23 20.0 °C 18.2 °C 1013.1 hPa South 1.1 km/h 11.1 km/h 89% 0.0 mm 0 W/m2
23:28 20.0 °C 18.2 °C 1013.1 hPa Calm   11.1 km/h 89% 0.0 mm 0 W/m2
23:33 20.0 °C 18.2 °C 1013.4 hPa SSW 5.0 km/h 11.1 km/h 89% 0.0 mm 0 W/m2
23:38 20.0 °C 18.2 °C 1013.4 hPa Calm   7.2 km/h 89% 0.0 mm 0 W/m2
23:43 20.0 °C 18.3 °C 1013.1 hPa Calm   6.1 km/h 90% 0.0 mm 0 W/m2
23:48 19.9 °C 18.4 °C 1013.4 hPa Calm     91% 0.0 mm 0 W/m2
23:53 19.9 °C 18.4 °C 1013.4 hPa Calm     91% 0.0 mm 0 W/m2
23:58 19.8 °C 18.3 °C 1013.4 hPa South 1.1 km/h 11.1 km/h 91% 0.0 mm 0 W/m2
Northern Hawkes Bay. New Zealand Historic Data
Compliments of Weather Underground - 2 mb